createdAt,value
2018-06-25T00:01:24.981Z,98448.56
2018-06-25T00:04:00.565Z,98440.42
2018-06-25T00:06:36.056Z,98442.27
2018-06-25T00:09:11.948Z,98442.73
2018-06-25T00:11:47.661Z,98443.20
2018-06-25T00:14:23.534Z,98444.31
2018-06-25T00:16:59.097Z,98439.67
2018-06-25T00:19:34.566Z,98447.35
2018-06-25T00:22:10.383Z,98445.73
2018-06-25T00:24:46.031Z,98446.14
2018-06-25T00:27:21.766Z,98450.61
2018-06-25T00:29:57.643Z,98444.46
2018-06-25T00:32:33.176Z,98441.84
2018-06-25T00:35:08.811Z,98441.70
2018-06-25T00:37:44.596Z,98438.08
2018-06-25T00:40:20.611Z,98435.32
2018-06-25T00:42:59.094Z,98438.91
2018-06-25T00:45:34.544Z,98433.60
2018-06-25T00:48:11.535Z,98433.47
2018-06-25T00:50:46.998Z,98436.34
2018-06-25T00:53:22.499Z,98439.42
2018-06-25T00:55:57.800Z,98437.94
2018-06-25T00:58:44.468Z,98440.28
2018-06-25T01:01:20.184Z,98435.33
2018-06-25T01:03:55.731Z,98445.13
2018-06-25T01:06:31.208Z,98438.05
2018-06-25T01:09:09.432Z,98439.64
2018-06-25T01:11:45.074Z,98437.27
2018-06-25T01:14:20.664Z,98437.73
2018-06-25T01:16:56.292Z,98441.34
2018-06-25T01:19:31.809Z,98438.13
2018-06-25T01:22:08.366Z,98442.73
2018-06-25T01:24:43.842Z,98445.52
2018-06-25T01:27:19.094Z,98442.27
2018-06-25T01:29:54.864Z,98445.05
2018-06-25T01:32:30.570Z,98448.20
2018-06-25T01:35:06.226Z,98450.60
2018-06-25T01:37:41.890Z,98443.56
2018-06-25T01:40:17.423Z,98444.73
2018-06-25T01:42:53.160Z,98446.28
2018-06-25T01:45:29.000Z,98447.66
2018-06-25T01:48:04.686Z,98443.88
2018-06-25T01:50:40.366Z,98446.49
2018-06-25T01:53:15.927Z,98447.03
2018-06-25T01:55:51.530Z,98442.03
2018-06-25T01:58:27.088Z,98442.42
2018-06-25T02:01:02.754Z,98438.17
2018-06-25T02:03:38.408Z,98439.66
2018-06-25T02:06:14.164Z,98442.02
2018-06-25T02:08:49.688Z,98438.48
2018-06-25T02:11:25.276Z,98433.92
2018-06-25T02:14:01.056Z,98436.19
2018-06-25T02:16:37.000Z,98438.34
2018-06-25T02:19:12.700Z,98444.50
2018-06-25T02:21:48.034Z,98440.85
2018-06-25T02:24:23.722Z,98449.28
2018-06-25T02:26:59.217Z,98450.03
2018-06-25T02:29:34.615Z,98446.42
2018-06-25T02:32:10.264Z,98447.34
2018-06-25T02:34:46.201Z,98448.82
2018-06-25T02:37:21.674Z,98448.72
2018-06-25T02:39:57.230Z,98458.91
2018-06-25T02:42:32.916Z,98457.22
2018-06-25T02:45:11.210Z,98451.98
2018-06-25T02:47:46.750Z,98458.81
2018-06-25T02:50:22.304Z,98455.84
2018-06-25T02:52:58.280Z,98460.13
2018-06-25T02:55:34.137Z,98466.53
2018-06-25T02:58:09.970Z,98464.91
2018-06-25T03:00:45.697Z,98463.61
2018-06-25T03:03:21.268Z,98462.01
2018-06-25T03:05:56.896Z,98462.23
2018-06-25T03:08:32.492Z,98461.55
2018-06-25T03:11:08.772Z,98470.08
2018-06-25T03:13:44.166Z,98472.48
2018-06-25T03:16:20.418Z,98474.47
2018-06-25T03:18:56.038Z,98475.78
2018-06-25T03:21:31.668Z,98476.77
2018-06-25T03:24:07.199Z,98478.55
2018-06-25T03:26:42.792Z,98476.78
2018-06-25T03:29:18.429Z,98474.88
2018-06-25T03:31:54.226Z,98480.42
2018-06-25T03:34:30.229Z,98475.72
2018-06-25T03:37:06.225Z,98481.42
2018-06-25T03:39:41.985Z,98474.48
2018-06-25T03:42:17.996Z,98483.66
2018-06-25T03:44:53.487Z,98484.20
2018-06-25T03:47:29.160Z,98492.83
2018-06-25T03:50:05.030Z,98489.75
2018-06-25T03:52:40.661Z,98493.83
2018-06-25T03:55:16.197Z,98489.75
2018-06-25T03:57:52.469Z,98492.13
2018-06-25T04:00:27.871Z,98500.45
2018-06-25T04:03:03.585Z,98496.52
2018-06-25T04:05:39.162Z,98499.92
2018-06-25T04:08:15.189Z,98501.23
2018-06-25T04:10:50.719Z,98505.16
2018-06-25T04:13:25.983Z,98501.94
2018-06-25T04:16:01.476Z,98504.63
2018-06-25T04:18:36.957Z,98510.38
2018-06-25T04:21:12.649Z,98509.72
2018-06-25T04:23:48.360Z,98508.31
2018-06-25T04:26:24.217Z,98514.98
2018-06-25T04:28:59.866Z,98515.27
2018-06-25T04:31:35.504Z,98514.37
2018-06-25T04:34:11.431Z,98519.61
2018-06-25T04:36:47.471Z,98525.63
2018-06-25T04:39:23.132Z,98522.15
2018-06-25T04:41:58.803Z,98519.96
2018-06-25T04:44:34.301Z,98516.91
2018-06-25T04:47:10.149Z,98513.88
2018-06-25T04:49:45.603Z,98517.83
2018-06-25T04:52:21.014Z,98521.92
2018-06-25T04:54:56.865Z,98517.45
2018-06-25T04:57:32.869Z,98524.98
2018-06-25T05:00:08.489Z,98525.52
2018-06-25T05:02:44.176Z,98525.07
2018-06-25T05:05:20.048Z,98524.14
2018-06-25T05:07:55.789Z,98526.58
2018-06-25T05:10:31.327Z,98524.36
2018-06-25T05:13:08.046Z,98522.73
2018-06-25T05:15:43.844Z,98532.20
2018-06-25T05:18:20.138Z,98529.34
2018-06-25T05:20:55.974Z,98526.38
2018-06-25T05:23:31.760Z,98528.39
2018-06-25T05:26:07.583Z,98534.45
2018-06-25T05:28:43.460Z,98539.44
2018-06-25T05:31:18.995Z,98536.19
2018-06-25T05:33:55.302Z,98536.25
2018-06-25T05:36:30.780Z,98536.05
2018-06-25T05:39:09.832Z,98537.27
2018-06-25T05:41:45.554Z,98538.02
2018-06-25T05:44:21.950Z,98534.70
2018-06-25T05:47:12.538Z,98536.11
2018-06-25T05:49:48.568Z,98538.91
2018-06-25T05:52:24.148Z,98539.89
2018-06-25T05:54:59.715Z,98540.13
2018-06-25T05:57:35.394Z,98538.72
2018-06-25T06:00:10.995Z,98546.09
2018-06-25T06:02:46.791Z,98545.27
2018-06-25T06:05:22.314Z,98548.59
2018-06-25T06:07:57.784Z,98547.22
2018-06-25T06:10:33.092Z,98546.92
2018-06-25T06:13:08.616Z,98548.69
2018-06-25T06:15:44.220Z,98544.80
2018-06-25T06:18:20.214Z,98546.47
2018-06-25T06:20:55.916Z,98548.20
2018-06-25T06:23:31.554Z,98551.87
2018-06-25T06:26:07.084Z,98555.81
2018-06-25T06:28:42.817Z,98549.17
2018-06-25T06:31:18.458Z,98560.75
2018-06-25T06:33:54.572Z,98559.44
2018-06-25T06:36:30.191Z,98554.41
2018-06-25T06:39:11.311Z,98552.18
2018-06-25T06:41:47.092Z,98546.89
2018-06-25T06:44:23.188Z,98555.56
2018-06-25T06:46:59.302Z,98555.95
2018-06-25T06:49:34.963Z,98559.84
2018-06-25T06:52:10.713Z,98563.56
2018-06-25T06:54:46.210Z,98559.81
2018-06-25T06:57:22.297Z,98561.73
2018-06-25T06:59:57.886Z,98561.72
2018-06-25T07:02:45.823Z,98568.28
2018-06-25T07:05:35.021Z,98573.88
2018-06-25T07:08:23.468Z,98576.20
2018-06-25T07:11:08.355Z,98581.66
2018-06-25T07:13:43.891Z,98582.23
2018-06-25T07:16:19.318Z,98575.00
2018-06-25T07:18:54.916Z,98565.81
2018-06-25T07:21:30.636Z,98566.67
2018-06-25T07:24:06.517Z,98570.26
2018-06-25T07:26:41.994Z,98567.95
2018-06-25T07:29:17.420Z,98567.38
2018-06-25T07:31:53.260Z,98561.95
2018-06-25T07:34:28.908Z,98571.38
2018-06-25T07:37:05.030Z,98565.11
2018-06-25T07:39:40.674Z,98564.67
2018-06-25T07:42:16.239Z,98565.66
2018-06-25T07:44:51.828Z,98567.22
2018-06-25T07:47:27.543Z,98567.36
2018-06-25T07:50:03.298Z,98564.09
2018-06-25T07:52:38.720Z,98563.66
2018-06-25T07:55:14.240Z,98563.69
2018-06-25T07:57:50.034Z,98562.63
2018-06-25T08:00:25.430Z,98570.09
2018-06-25T08:03:00.910Z,98565.77
2018-06-25T08:05:36.331Z,98568.34
2018-06-25T08:08:12.020Z,98572.84
2018-06-25T08:10:47.566Z,98571.29
2018-06-25T08:13:23.102Z,98569.33
2018-06-25T08:15:58.643Z,98571.33
2018-06-25T08:18:34.909Z,98568.09
2018-06-25T08:21:10.351Z,98563.46
2018-06-25T08:23:45.866Z,98574.41
2018-06-25T08:26:21.394Z,98572.33
2018-06-25T08:28:56.832Z,98572.57
2018-06-25T08:31:32.170Z,98580.86
2018-06-25T08:34:08.090Z,98577.78
2018-06-25T08:36:43.601Z,98583.14
2018-06-25T08:39:19.161Z,98584.84
2018-06-25T08:41:54.845Z,98594.67
2018-06-25T08:44:30.365Z,98587.23
2018-06-25T08:47:06.087Z,98590.65
2018-06-25T08:49:41.411Z,98600.27
2018-06-25T08:52:16.713Z,98596.62
2018-06-25T08:54:52.091Z,98600.31
2018-06-25T08:57:27.735Z,98598.03
2018-06-25T09:00:04.455Z,98596.50
2018-06-25T09:02:39.986Z,98598.39
2018-06-25T09:05:15.436Z,98598.63
2018-06-25T09:07:50.909Z,98593.99
2018-06-25T09:10:26.356Z,98589.73
2018-06-25T09:13:01.963Z,98593.02
2018-06-25T09:15:37.443Z,98591.09
2018-06-25T09:18:13.082Z,98583.73
2018-06-25T09:20:48.737Z,98593.34
2018-06-25T09:23:24.283Z,98589.34
2018-06-25T09:25:59.601Z,98598.33
2018-06-25T09:28:35.267Z,98598.33
2018-06-25T09:31:10.693Z,98594.88
2018-06-25T09:33:46.267Z,98590.53
2018-06-25T09:36:21.681Z,98594.49
2018-06-25T09:38:57.093Z,98600.80
2018-06-25T09:41:32.476Z,98603.02
2018-06-25T09:44:08.245Z,98592.16
2018-06-25T09:46:43.637Z,98601.14
2018-06-25T09:49:19.185Z,98605.83
2018-06-25T09:51:54.657Z,98598.41
2018-06-25T09:54:30.365Z,98599.03
2018-06-25T09:57:06.615Z,98600.48
2018-06-25T09:59:41.935Z,98604.22
2018-06-25T10:02:17.584Z,98602.90
2018-06-25T10:04:53.162Z,98600.28
2018-06-25T10:07:28.649Z,98595.95
2018-06-25T10:10:04.198Z,98587.67
2018-06-25T10:12:39.687Z,98588.34
2018-06-25T10:15:15.155Z,98589.64
2018-06-25T10:17:51.076Z,98577.61
2018-06-25T10:20:26.859Z,98579.86
2018-06-25T10:23:02.419Z,98585.34
2018-06-25T10:25:38.394Z,98582.73
2018-06-25T10:28:13.938Z,98584.92
2018-06-25T10:30:49.252Z,98587.08
2018-06-25T10:33:24.897Z,98587.22
2018-06-25T10:36:01.595Z,98587.73
2018-06-25T10:38:37.017Z,98582.47
2018-06-25T10:41:56.509Z,98589.84
2018-06-25T10:44:31.953Z,98588.52
2018-06-25T10:47:07.547Z,98588.81
2018-06-25T10:49:43.420Z,98585.06
2018-06-25T10:52:19.009Z,98585.53
2018-06-25T10:54:55.141Z,98579.74
2018-06-25T10:57:30.608Z,98582.19
2018-06-25T11:00:06.971Z,98580.61
2018-06-25T11:02:42.273Z,98581.36
2018-06-25T11:05:17.827Z,98586.73
2018-06-25T11:07:53.535Z,98587.95
2018-06-25T11:10:30.951Z,98588.95
2018-06-25T11:13:09.276Z,98588.63
2018-06-25T11:15:54.859Z,98588.55
2018-06-25T11:18:30.674Z,98597.17
2018-06-25T11:21:06.332Z,98595.02
2018-06-25T11:23:41.925Z,98594.44
2018-06-25T11:26:17.461Z,98595.64
2018-06-25T11:28:52.954Z,98600.17
2018-06-25T11:31:28.427Z,98588.73
2018-06-25T11:34:04.361Z,98591.00
2018-06-25T11:36:39.930Z,98592.31
2018-06-25T11:39:15.594Z,98590.11
2018-06-25T11:41:51.184Z,98586.02
2018-06-25T11:44:26.771Z,98586.33
2018-06-25T11:47:02.410Z,98595.48
2018-06-25T11:49:38.042Z,98593.88
2018-06-25T11:52:13.691Z,98592.09
2018-06-25T11:54:49.190Z,98587.05
2018-06-25T11:57:24.661Z,98587.95
2018-06-25T12:00:01.035Z,98576.07
2018-06-25T12:02:36.792Z,98574.34
2018-06-25T12:05:12.391Z,98566.62
2018-06-25T12:07:48.058Z,98565.02
2018-06-25T12:10:23.748Z,98564.00
2018-06-25T12:12:59.185Z,98576.45
2018-06-25T12:15:34.629Z,98572.77
2018-06-25T12:18:10.404Z,98564.18
2018-06-25T12:20:46.076Z,98583.55
2018-06-25T12:23:22.048Z,98584.03
2018-06-25T12:25:57.947Z,98573.31
2018-06-25T12:28:33.799Z,98564.56
2018-06-25T12:31:09.718Z,98565.66
2018-06-25T12:33:45.359Z,98561.06
2018-06-25T12:36:21.659Z,98550.90
2018-06-25T12:38:57.412Z,98566.98
2018-06-25T12:41:33.300Z,98560.82
2018-06-25T12:44:09.264Z,98562.98
2018-06-25T12:46:44.877Z,98567.73
2018-06-25T12:49:20.606Z,98568.42
2018-06-25T12:51:56.330Z,98556.62
2018-06-25T12:54:31.737Z,98553.22
2018-06-25T12:57:08.041Z,98548.03
2018-06-25T12:59:46.769Z,98556.02
2018-06-25T13:02:22.018Z,98551.80
2018-06-25T13:04:57.821Z,98542.50
2018-06-25T13:07:33.406Z,98540.92
2018-06-25T13:10:10.185Z,98540.90
2018-06-25T13:12:45.689Z,98538.88
2018-06-25T13:15:21.121Z,98551.03
2018-06-25T13:17:56.888Z,98548.37
2018-06-25T13:20:33.345Z,98554.52
2018-06-25T13:23:09.074Z,98558.99
2018-06-25T13:25:44.932Z,98565.73
2018-06-25T13:28:20.262Z,98563.14
2018-06-25T13:30:56.016Z,98571.33
2018-06-25T13:33:31.366Z,98574.90
2018-06-25T13:36:06.999Z,98568.60
2018-06-25T13:38:42.544Z,98569.50
2018-06-25T13:41:18.036Z,98562.98
2018-06-25T13:43:53.298Z,98559.77
2018-06-25T13:46:28.796Z,98559.68
2018-06-25T13:49:04.208Z,98559.27
2018-06-25T13:51:39.768Z,98552.08
2018-06-25T13:54:15.596Z,98557.90
2018-06-25T13:56:51.194Z,98566.34
2018-06-25T13:59:26.754Z,98555.23
2018-06-25T14:02:02.360Z,98562.53
2018-06-25T14:04:38.174Z,98563.54
2018-06-25T14:07:13.822Z,98555.29
2018-06-25T14:09:50.928Z,98559.98
2018-06-25T14:12:26.432Z,98554.75
2018-06-25T14:15:02.159Z,98549.46
2018-06-25T14:17:37.674Z,98547.75
2018-06-25T14:20:13.320Z,98545.30
2018-06-25T14:22:49.037Z,98543.20
2018-06-25T14:25:24.644Z,98541.41
2018-06-25T14:28:05.603Z,98548.49
2018-06-25T14:30:46.109Z,98554.66
2018-06-25T14:33:26.750Z,98556.07
2018-06-25T14:36:02.304Z,98554.66
2018-06-25T14:38:37.693Z,98558.23
2018-06-25T14:41:13.097Z,98554.39
2018-06-25T14:43:48.608Z,98549.47
2018-06-25T14:46:24.150Z,98559.41
2018-06-25T14:48:59.718Z,98557.64
2018-06-25T14:51:34.988Z,98547.94
2018-06-25T14:54:12.240Z,98541.38
2018-06-25T14:56:47.587Z,98530.92
2018-06-25T14:59:23.067Z,98536.08
2018-06-25T15:01:59.057Z,98535.45
2018-06-25T15:04:34.608Z,98541.24
2018-06-25T15:07:09.870Z,98551.20
2018-06-25T15:09:45.427Z,98536.82
2018-06-25T15:12:21.016Z,98536.98
2018-06-25T15:14:56.386Z,98535.30
2018-06-25T15:17:32.004Z,98542.73
2018-06-25T15:20:07.686Z,98530.25
2018-06-25T15:22:43.046Z,98538.22
2018-06-25T15:25:18.554Z,98532.78
2018-06-25T15:27:53.876Z,98530.11
2018-06-25T15:30:29.446Z,98520.72
2018-06-25T15:33:06.050Z,98525.77
2018-06-25T15:35:41.603Z,98520.58
2018-06-25T15:38:44.601Z,98516.27
2018-06-25T15:41:20.289Z,98515.06
2018-06-25T15:44:11.653Z,98521.55
2018-06-25T15:46:47.081Z,98529.17
2018-06-25T15:49:22.690Z,98516.09
2018-06-25T15:51:58.257Z,98523.11
2018-06-25T15:54:33.769Z,98527.95
2018-06-25T15:57:09.181Z,98528.97
2018-06-25T15:59:45.811Z,98522.45
2018-06-25T16:02:21.389Z,98516.63
2018-06-25T16:04:56.836Z,98517.65
2018-06-25T16:07:32.883Z,98525.30
2018-06-25T16:10:08.407Z,98526.14
2018-06-25T16:12:43.991Z,98527.59
2018-06-25T16:15:19.510Z,98521.16
2018-06-25T16:18:06.628Z,98521.55
2018-06-25T16:20:42.253Z,98521.31
2018-06-25T16:23:18.215Z,98512.80
2018-06-25T16:25:53.897Z,98507.62
2018-06-25T16:28:30.252Z,98508.85
2018-06-25T16:31:05.875Z,98514.23
2018-06-25T16:33:41.852Z,98509.95
2018-06-25T16:36:17.334Z,98501.36
2018-06-25T16:38:52.851Z,98509.55
2018-06-25T16:41:28.511Z,98509.55
2018-06-25T16:44:04.261Z,98509.55
2018-06-25T16:46:40.825Z,98510.56
2018-06-25T16:49:16.528Z,98506.83
2018-06-25T16:51:53.348Z,98518.42
2018-06-25T16:54:29.050Z,98519.45
2018-06-25T16:57:05.132Z,98512.83
2018-06-25T16:59:41.968Z,98507.77
2018-06-25T17:02:17.617Z,98509.80
2018-06-25T17:04:53.342Z,98516.73
2018-06-25T17:07:29.093Z,98516.20
2018-06-25T17:10:05.686Z,98513.81
2018-06-25T17:12:41.365Z,98514.52
2018-06-25T17:15:17.826Z,98514.95
2018-06-25T17:17:53.506Z,98509.86
2018-06-25T17:20:28.964Z,98517.22
2018-06-25T17:23:06.403Z,98517.36
2018-06-25T17:25:42.691Z,98521.80
2018-06-25T17:28:18.565Z,98517.25
2018-06-25T17:30:56.045Z,98511.84
2018-06-25T17:33:32.479Z,98514.86
2018-06-25T17:36:08.380Z,98516.84
2018-06-25T17:38:44.953Z,98523.23
2018-06-25T17:41:21.176Z,98527.34
2018-06-25T17:43:58.095Z,98526.52
2018-06-25T17:46:34.188Z,98528.06
2018-06-25T17:49:09.796Z,98531.20
2018-06-25T17:51:46.166Z,98532.89
2018-06-25T17:54:23.229Z,98539.49
2018-06-25T17:56:58.937Z,98535.70
2018-06-25T17:59:35.420Z,98544.91
2018-06-25T18:02:12.578Z,98539.47
2018-06-25T18:04:48.649Z,98535.49
2018-06-25T18:07:24.428Z,98537.06
2018-06-25T18:10:02.264Z,98532.74
2018-06-25T18:12:38.450Z,98539.13
2018-06-25T18:15:14.302Z,98540.36
2018-06-25T18:17:50.734Z,98536.06
2018-06-25T18:20:26.377Z,98539.10
2018-06-25T18:23:02.834Z,98545.60
2018-06-25T18:25:40.511Z,98540.16
2018-06-25T18:28:17.496Z,98547.02
2018-06-25T18:30:53.544Z,98543.98
2018-06-25T18:33:30.420Z,98546.52
2018-06-25T18:36:06.828Z,98548.48
2018-06-25T18:38:43.227Z,98555.94
2018-06-25T18:41:18.893Z,98552.64
2018-06-25T18:43:55.555Z,98553.44
2018-06-25T18:46:31.320Z,98562.72
2018-06-25T18:49:08.638Z,98560.27
2018-06-25T18:51:44.331Z,98558.98
2018-06-25T18:54:21.170Z,98577.65
2018-06-25T18:56:57.778Z,98577.14
2018-06-25T18:59:33.913Z,98579.14
2018-06-25T19:02:09.358Z,98576.92
2018-06-25T19:04:45.394Z,98582.74
2018-06-25T19:07:22.873Z,98587.20
2018-06-25T19:09:58.938Z,98581.02
2018-06-25T19:12:35.720Z,98587.16
2018-06-25T19:15:11.985Z,98582.92
2018-06-25T19:17:49.826Z,98580.33
2018-06-25T19:20:29.486Z,98581.97
2018-06-25T19:23:04.960Z,98582.72
2018-06-25T19:25:42.711Z,98592.48
2018-06-25T19:28:18.380Z,98589.47
2018-06-25T19:30:55.216Z,98594.18
2018-06-25T19:33:32.080Z,98601.83
2018-06-25T19:36:09.610Z,98610.75
2018-06-25T19:38:45.728Z,98616.98
2018-06-25T19:41:21.644Z,98614.86
2018-06-25T19:43:57.731Z,98618.33
2018-06-25T19:46:34.406Z,98619.75
2018-06-25T19:49:10.812Z,98623.38
2018-06-25T19:51:49.485Z,98634.38
2018-06-25T19:54:25.774Z,98640.51
2018-06-25T19:57:02.479Z,98646.29
2018-06-25T19:59:39.892Z,98640.61
2018-06-25T20:02:15.939Z,98644.77
2018-06-25T20:04:52.922Z,98645.12
2018-06-25T20:07:29.805Z,98652.48
2018-06-25T20:10:07.367Z,98656.23
2018-06-25T20:12:43.606Z,98657.52
2018-06-25T20:15:19.793Z,98656.37
2018-06-25T20:17:57.206Z,98663.88
2018-06-25T20:20:32.818Z,98664.20
2018-06-25T20:23:09.109Z,98666.54
2018-06-25T20:25:44.792Z,98672.09
2018-06-25T20:28:21.060Z,98667.45
2018-06-25T20:30:57.044Z,98668.67
2018-06-25T20:33:33.683Z,98668.91
2018-06-25T20:36:09.928Z,98670.55
2018-06-25T20:38:45.626Z,98663.57
2018-06-25T20:41:21.815Z,98663.70
2018-06-25T20:43:58.627Z,98664.35
2018-06-25T20:46:34.750Z,98660.78
2018-06-25T20:49:10.500Z,98662.44
2018-06-25T20:51:46.683Z,98657.80
2018-06-25T20:54:23.068Z,98659.45
2018-06-25T20:57:04.957Z,98663.64
2018-06-25T20:59:40.527Z,98659.52
2018-06-25T21:02:17.601Z,98666.45
2018-06-25T21:04:54.088Z,98668.28
2018-06-25T21:07:30.512Z,98673.70
2018-06-25T21:10:07.093Z,98670.14
2018-06-25T21:12:44.384Z,98673.13
2018-06-25T21:15:20.323Z,98674.69
2018-06-25T21:17:55.992Z,98677.50
2018-06-25T21:20:31.695Z,98675.23
2018-06-25T21:23:07.746Z,98677.23
2018-06-25T21:25:43.360Z,98679.23
2018-06-25T21:28:19.832Z,98683.95
2018-06-25T21:30:55.726Z,98682.23
2018-06-25T21:33:32.163Z,98676.67
2018-06-25T21:36:08.312Z,98683.60
2018-06-25T21:38:45.054Z,98675.41
2018-06-25T21:41:21.778Z,98682.06
2018-06-25T21:43:57.417Z,98680.75
2018-06-25T21:46:33.238Z,98687.87
2018-06-25T21:49:09.463Z,98685.23
2018-06-25T21:51:45.353Z,98690.69
2018-06-25T21:54:21.394Z,98697.50
2018-06-25T21:56:58.056Z,98705.23
2018-06-25T21:59:33.967Z,98705.55
2018-06-25T22:02:10.177Z,98703.11
2018-06-25T22:04:46.066Z,98708.38
2018-06-25T22:07:21.782Z,98706.13
2018-06-25T22:09:57.484Z,98704.42
2018-06-25T22:12:32.920Z,98709.59
2018-06-25T22:15:08.940Z,98717.45
2018-06-25T22:17:46.110Z,98723.17
2018-06-25T22:20:21.924Z,98724.48
2018-06-25T22:23:03.549Z,98721.55
2018-06-25T22:25:39.976Z,98716.42
2018-06-25T22:28:16.488Z,98717.19
2018-06-25T22:30:52.489Z,98711.30
2018-06-25T22:33:28.467Z,98705.00
2018-06-25T22:36:05.902Z,98705.62
2018-06-25T22:38:42.614Z,98707.36
2018-06-25T22:41:19.787Z,98711.34
2018-06-25T22:44:04.802Z,98711.08
2018-06-25T22:46:42.901Z,98713.13
2018-06-25T22:49:18.931Z,98714.78
2018-06-25T22:51:54.978Z,98709.95
2018-06-25T22:54:30.630Z,98710.13
2018-06-25T22:57:07.380Z,98707.89
2018-06-25T22:59:42.956Z,98709.79
2018-06-25T23:02:20.086Z,98704.07
2018-06-25T23:04:57.094Z,98699.73
2018-06-25T23:07:33.997Z,98696.92
2018-06-25T23:10:10.060Z,98699.59
2018-06-25T23:12:48.163Z,98698.78
2018-06-25T23:15:23.818Z,98697.58
2018-06-25T23:17:59.484Z,98692.70
2018-06-25T23:20:34.962Z,98696.88
2018-06-25T23:23:11.485Z,98697.45
2018-06-25T23:25:48.226Z,98702.48
2018-06-25T23:28:24.282Z,98698.61
2018-06-25T23:31:00.351Z,98692.74
2018-06-25T23:33:36.928Z,98692.16
2018-06-25T23:36:13.030Z,98694.95
2018-06-25T23:38:49.589Z,98704.00
2018-06-25T23:41:25.233Z,98702.53
2018-06-25T23:44:02.517Z,98709.19
2018-06-25T23:46:38.639Z,98702.65
2018-06-25T23:49:14.663Z,98710.41
2018-06-25T23:51:50.481Z,98702.14
2018-06-25T23:54:27.465Z,98705.34
2018-06-25T23:57:03.219Z,98701.20
2018-06-25T23:59:38.999Z,98698.38
